Rafael Lima

Olheiro-Chefe - Grêmio
4 Abr 2027
Domingo
Processo

Personalidade

Adaptabilidade (1) Ambição (13) Controvérsia (10) Lealdade (8) Pressão (6) Profissionalismo (10) Espírito Esportivo (8) Temperamento (2)

Perfil

Estilo de Treinamento Democrático
Licença Continental C
Determinação 12
Gestão de Pessoas 14
Motivação 12
Disciplina 9
Satisfação no Trabalho
77%
Fadiga
0%
Função Olheiro-Chefe
Salário 90.4K p/s
Contrato 14.03.2028

Desempenho

Comportamento Bom
Eficácia do Treinamento
45%
Desenvolvimento do Jogador
75%
Prevenção de Lesões
40%
Implementação Tática
55%

Eventos Recentes

Recomendou um alvo de transferência agora
Recomendou um alvo de transferência agora
Recomendou um alvo de transferência agora
Avaliou um jogador agora
Avaliou um jogador agora
Avaliou um jogador agora
Avaliou um jogador agora
Avaliou um jogador agora

Monitorando agora

219
Jogador Clube Status Habilidade Confiança Observado Última observação Último voto
Víctor Gómez Braga Ativo 142 / 141 40% 9 03.04.2027 -
Morgan Whittaker Middlesbrough Ativo 138 / 133 40% 4 03.04.2027 -
Bright Arrey-Mbi Braga Ativo 140 / 133 40% 3 03.04.2027 -
Yousef Salech Cardiff City Ativo 132 / 128 40% 9 03.04.2027 -
Rico Lewis Manchester City Ativo 156 / 152 40% 2 03.04.2027 -
Alfonso Trezza Arouca Ativo 118 / 123 40% 1 03.04.2027 -
Gustavo Silva Vitoria Guimaraes Ativo 128 / 121 40% 9 01.04.2027 -
Florián Monzón Atlas Ativo 127 / 125 40% 5 01.04.2027 -
Santiago Castro AS Roma Ativo 145 / 151 40% 7 01.04.2027 -
Matthew Targett Hull City Ativo 127 / 133 40% 1 01.04.2027 -
Alfie Doughty Millwall Ativo 133 / 128 40% 1 01.04.2027 -
Leonardo Lelo Braga Ativo 143 / 134 40% 4 31.03.2027 -
Maximiliano Araújo Sporting CP Ativo 148 / 149 40% 8 31.03.2027 -
Enzo Barrenechea Benfica Ativo 152 / 146 40% 4 31.03.2027 -
Vinícius Lopes Santa Clara Ativo 124 / 119 40% 12 30.03.2027 -
Mohamed-Ali Cho Hull City Ativo 141 / 138 40% 5 30.03.2027 -
Charles De Ketelaere Atalanta Ativo 158 / 154 40% 3 30.03.2027 -
Jakub Kiwior Porto Ativo 154 / 157 40% 3 30.03.2027 -
Jake O'Brien Everton Ativo 142 / 148 40% 1 30.03.2027 -
Ousmane Diomande Nottingham Forest Ativo 155 / 153 40% 2 29.03.2027 -
Efraín Álvarez Guadalajara Ativo 133 / 129 40% 7 26.03.2027 -
Camilo Durán Bloemfontein Celtic Ativo 117 / 117 40% 5 26.03.2027 -
Largie Ramazani Leeds United Ativo 133 / 139 40% 4 25.03.2027 -
Giacomo Raspadori Atalanta Ativo 154 / 143 40% 6 25.03.2027 -
Mahmoud Al Bloushi Al Shabab Ativo 154 / 151 40% 3 24.03.2027 -
Evidence Makgopa Orlando Pirates Ativo 115 / 110 40% 3 24.03.2027 -
Dom Ballard Leyton Orient Ativo 121 / 123 40% 2 24.03.2027 -
Tamble Monteiro Rio Ave Ativo 122 / 116 40% 2 23.03.2027 -
Yanis Begraoui Estoril Praia Ativo 137 / 132 40% 5 23.03.2027 -
James Garner Everton Ativo 154 / 150 40% 3 23.03.2027 -
Javi Sánchez Arouca Ativo 126 / 129 40% 2 23.03.2027 -
Alex Scott Bournemouth Ativo 150 / 151 40% 1 23.03.2027 -
Georginio Rutter Brighton Ativo 149 / 150 40% 4 22.03.2027 -
Cesar Corona Veracruz Ativo 139 / 134 40% 14 20.03.2027 -
Sorriso Famalicao Ativo 131 / 127 40% 10 20.03.2027 -
Martín Tejón Maritimo Ativo 116 / 124 40% 1 20.03.2027 -
Yuri Alberto Corinthians Ativo 141 / 143 40% 12 19.03.2027 -
Iván Fresneda Sporting CP Ativo 136 / 143 40% 8 18.03.2027 -
Percy Erasmus SuperSport United Ativo 120 / 126 40% 10 18.03.2027 -
Emanuel Emegha Chelsea Ativo 144 / 143 40% 1 18.03.2027 -
Óscar Mingueza Crystal Palace Ativo 153 / 147 40% 1 18.03.2027 -
Xeka Estoril Praia Ativo 127 / 126 40% 3 17.03.2027 -
Wesley Fofana Chelsea Ativo 168 / 159 40% 1 17.03.2027 -
Erik Lira Cruz Azul Ativo 132 / 138 40% 1 17.03.2027 -
Sikou Niakaté Braga Ativo 142 / 138 40% 1 16.03.2027 -
Loïs Openda Juventus Ativo 146 / 148 40% 1 14.03.2027 -
Jalen Blesa Rio Ave Ativo 118 / 119 40% 9 13.03.2027 -
Adnan Courtois KV Oostende Ativo 128 / 130 40% 2 11.03.2027 -
Jan Bednarek Porto Ativo 143 / 146 40% 3 10.03.2027 -
Jordan Holsgrove Estoril Praia Ativo 136 / 127 40% 3 10.03.2027 -
Harry Clarke Preston Ativo 130 / 129 40% 1 10.03.2027 -
Mateo Kovačić Manchester City Ativo 151 / 151 40% 2 09.03.2027 -
Yehor Yarmoliuk Brentford Ativo 142 / 152 40% 1 09.03.2027 -
Korede Osundina Casa Pia Ativo 118 / 116 40% 5 07.03.2027 -
Tom Cannon Sheffield United Ativo 130 / 127 40% 8 07.03.2027 -
Afimico Pululu Al-Hazem Ativo 143 / 131 40% 4 04.03.2027 -
Michy Fellaini KV Oostende Ativo 140 / 138 40% 4 27.02.2027 -
Nico Paz Como Ativo 152 / 160 40% 4 26.02.2027 -
Alberto Costa Porto Ativo 141 / 147 40% 3 25.02.2027 -
Leon Goretzka Aston Villa Ativo 160 / 155 40% 4 25.02.2027 -
Ondrej Duda Zamalek Ativo 125 / 133 40% 1 24.02.2027 -
Adrien Truffert Bournemouth Ativo 156 / 147 40% 5 23.02.2027 -
Richard Ríos Benfica Ativo 141 / 144 40% 1 22.02.2027 -
Gustaf Lagerbielke Braga Ativo 142 / 139 40% 1 22.02.2027 -
Shea Charles Southampton Ativo 140 / 138 40% 2 21.02.2027 -
Curtis Jones Inter Ativo 156 / 156 40% 1 21.02.2027 -
Nicolò Tresoldi Club Brugge Ativo 135 / 133 40% 2 19.02.2027 -
Gonzalo Fulham Ativo 145 / 145 40% 1 17.02.2027 -
Amadou Onana Aston Villa Ativo 161 / 157 40% 2 15.02.2027 -
Kevin Schade Brentford Ativo 143 / 146 40% 2 15.02.2027 -
Fidel Ambríz Monterrey Ativo 130 / 129 40% 1 15.02.2027 -
Figueiredo Alverca Ativo 128 / 128 40% 8 14.02.2027 -
Rumarn Burrell Queens Park Rangers Ativo 133 / 125 40% 1 13.02.2027 -
Luciano Gondou CSKA Moscow Ativo 134 / 123 40% 2 11.02.2027 -
Cristian Montero Veracruz Ativo 132 / 127 40% 1 11.02.2027 -
Igor Jesus Nottingham Forest Ativo 138 / 140 40% 1 06.02.2027 -
Tyler Adams Bournemouth Ativo 156 / 152 40% 1 06.02.2027 -
Jean-Luc Morin Tours Ativo 141 / 141 40% 6 04.02.2027 -
Pablo Rosario Porto Ativo 145 / 140 40% 7 01.02.2027 -
Francisco Moura Porto Ativo 137 / 137 40% 2 31.01.2027 -
Richard Ledezma Guadalajara Ativo 136 / 137 40% 1 31.01.2027 -
Lucas Piton Vasco da Gama Ativo 124 / 133 40% 2 28.01.2027 -
Brennan Johnson Everton Ativo 140 / 142 40% 4 28.01.2027 -
Renan Lodi Atlético Mineiro Ativo 145 / 136 40% 2 28.01.2027 -
Quilindschy Hartman Burnley Ativo 145 / 144 40% 1 28.01.2027 -
Rubén Duarte Pumas UNAM Ativo 129 / 129 40% 2 26.01.2027 -
Rodrigo Pinheiro Famalicao Ativo 133 / 129 40% 2 25.01.2027 -
Noah Sadiki Sunderland Ativo 148 / 147 40% 1 25.01.2027 -
Kenny Tete Fulham Ativo 147 / 143 40% 1 25.01.2027 -
Luís Esteves Atlas Ativo 129 / 130 40% 2 23.01.2027 -
Maxence Lacroix Chelsea Ativo 146 / 151 40% 1 23.01.2027 -
José Manuel López Palmeiras Ativo 132 / 131 40% 5 18.01.2027 -
Nathan Fogaça Fortaleza Ativo 133 / 127 40% 2 15.01.2027 -
Paulinho Palmeiras Ativo 149 / 143 40% 7 14.01.2027 -
Lucas Veríssimo Santos Ativo 128 / 134 40% 2 13.01.2027 -
Itumeleng Tau Ajax Cape Town Ativo 105 / 113 40% 3 12.01.2027 -
Anton Stach Leeds United Ativo 146 / 149 40% 1 11.01.2027 -
George Hirst Stoke City Ativo 135 / 134 40% 3 08.01.2027 -
Sidney Lima Santa Clara Ativo 128 / 127 40% 1 06.01.2027 -
Josh Coburn Millwall Ativo 117 / 117 40% 1 06.01.2027 -
Samu Aghehowa Arsenal Ativo 144 / 151 40% 2 01.01.2027 -
Brayan León Mamelodi Sundowns Ativo 123 / 114 40% 2 30.12.2026 -
Marcos Paulo Juventude Rejeitado 127 / 121 40% 2 27.12.2026 Mais informações
Gonzalo Plata Dinamo Moscow Ativo 128 / 131 40% 1 27.12.2026 -
Liam Delap Nottingham Forest Ativo 141 / 144 40% 1 25.12.2026 -
Jonathan Calleri Sport Recife Ativo 141 / 133 65% 1 21.12.2026 Aprovar
Adriano Bertaccini Anderlecht Ativo 133 / 122 40% 2 19.12.2026 -
Brenner Vasco da Gama Ativo 119 / 129 40% 3 18.12.2026 -
Vitor Roque Palmeiras Ativo 150 / 146 40% 7 17.12.2026 -
Stav Toriel Hapoel Tel Aviv Ativo 136 / 131 40% 1 17.12.2026 -
Heorhii Sudakov Benfica Ativo 143 / 144 40% 3 13.12.2026 -
Alan KAA Gent Ativo 126 / 131 40% 1 13.12.2026 -
Fotis Ioannidis Sporting CP Ativo 133 / 133 40% 2 02.12.2026 -
Martinelli Fluminense Ativo 138 / 140 66% 1 01.12.2026 Aprovar
Marcos Antonio Sport Recife Perdido 138 / 138 68% 1 01.12.2026 -
Iván Martín Racing Club Ativo 143 / 143 66% 1 01.12.2026 Aprovar
Marvin Keller Young Boys Relatório pronto 136 / 137 67% 1 01.12.2026 Aprovar
Javi Ontiveros Cádiz Ativo 134 / 125 40% 2 30.11.2026 -
Loum Tchaouna Coventry City Ativo 143 / 137 40% 4 30.11.2026 -
Alexis Vega Toluca Perdido 140 / 145 40% 10 28.11.2026 -
João Palhinha Benfica Perdido 149 / 150 40% 9 27.11.2026 Observar
Matheus Pereira Cruzeiro Ativo 136 / 142 40% 4 27.11.2026 -
Gabri Veiga Porto Ativo 145 / 150 40% 2 27.11.2026 Mais informações
Pau Víctor Braga Ativo 141 / 140 40% 6 26.11.2026 -
Pepê Porto Ativo 154 / 145 40% 5 26.11.2026 -
Gianluca Prestianni Benfica Ativo 135 / 140 40% 13 25.11.2026 -
Mateo Retegui Al-Qadisiyah Ativo 162 / 155 40% 2 25.11.2026 -
Yeremay Deportivo La Coruña Ativo 143 / 145 40% 2 25.11.2026 -
Germán Valera Elche Ativo 144 / 137 40% 1 25.11.2026 -
Roberto Fernández Braga Ativo 147 / 139 40% 3 24.11.2026 -
Marcos Paulo Juventude Perdido 123 / 123 40% 2 24.11.2026 Mais informações
Lukáš Provod Slavia Prague Perdido 156 / 140 40% 1 22.11.2026 -
Marcel Ruiz Toluca Ativo 136 / 138 40% 3 21.11.2026 -
Borja Sainz Porto Ativo 145 / 145 40% 4 20.11.2026 -
Daniel Bragança Sporting CP Ativo 132 / 133 40% 8 19.11.2026 -
Alejandro Grimaldo Atlético Madrid Ativo 168 / 159 40% 1 19.11.2026 -
Mario Dorgeles Braga Ativo 135 / 137 40% 4 18.11.2026 -
Haissem Hassan Bloemfontein Celtic Ativo 141 / 129 40% 2 18.11.2026 -
Roger Brugué Levante Ativo 133 / 128 40% 1 16.11.2026 -
Agustín Palavecino Cruz Azul Ativo 133 / 134 40% 2 15.11.2026 -
Thiago Almada River Plate Perdido 144 / 148 40% 3 14.11.2026 -
Luiz Henrique Zenit Ativo 151 / 146 40% 2 14.11.2026 -
Geny Sporting CP Ativo 137 / 140 40% 4 12.11.2026 -
Pablo Solari Spartak Moscow Ativo 118 / 129 40% 2 11.11.2026 -
Jefferson Savarino Fluminense Ativo 138 / 132 40% 3 10.11.2026 -
Leandro Barreiro Benfica Ativo 146 / 139 40% 4 10.11.2026 -
Lucas Paquetá Flamengo Ativo 141 / 139 40% 3 10.11.2026 -
Alan Varela Porto Ativo 139 / 144 40% 3 09.11.2026 -
Omar El Hilali Espanyol Ativo 140 / 145 40% 1 09.11.2026 -
Marcos Llorente Atlético Madrid Ativo 150 / 156 40% 1 09.11.2026 -
Rodrigo Zalazar Sporting CP Ativo 148 / 146 40% 2 06.11.2026 -
Fredrik Aursnes Benfica Ativo 144 / 147 40% 5 05.11.2026 -
Hwang In-Beom Porto Ativo 146 / 142 40% 4 04.11.2026 -
Mauro Arambarri River Plate Ativo 159 / 156 40% 6 04.11.2026 -
Reiss Nelson AC Milan Ativo 136 / 144 40% 1 02.11.2026 -
Brais Méndez Columbus Crew Ativo 143 / 150 40% 2 30.10.2026 -
Alejandro Piedrahita Deportivo Pereira Ativo 133 / 121 40% 3 27.10.2026 -
Jonas Wind Braga Ativo 137 / 136 40% 6 25.10.2026 -
Urko Izeta Cádiz Ativo 131 / 128 40% 1 25.10.2026 -
João Carvalho Estoril Praia Ativo 125 / 134 40% 4 21.10.2026 -
José Paradela Cruz Azul Ativo 137 / 139 40% 5 16.10.2026 -
Jonathan Dubasin Osasuna Ativo 143 / 138 40% 1 15.10.2026 -
Dodi Lukébakio Benfica Ativo 135 / 145 40% 1 14.10.2026 -
Santi García Gil Vicente Ativo 140 / 130 40% 2 13.10.2026 -
Cheikh Sabaly Vancouver Whitecaps Ativo 120 / 124 40% 1 09.10.2026 -
William Gomes Porto Ativo 133 / 143 40% 5 06.10.2026 -
Ollie Watkins Aston Villa Ativo 144 / 151 40% 1 06.10.2026 -
Alejandro Zendejas Club America Ativo 138 / 139 40% 2 05.10.2026 -
Rafael Navarro Colorado Rapids Ativo 126 / 127 40% 1 05.10.2026 -
Nehuén Pérez Porto Ativo 134 / 136 40% 1 05.10.2026 -
Samuel Lino Flamengo Ativo 144 / 140 40% 4 01.10.2026 -
Ryan Gauld Vancouver Whitecaps Ativo 140 / 132 40% 2 30.09.2026 -
Jesús Ricardo Angulo Toluca Ativo 139 / 132 40% 1 29.09.2026 -
Riqui Puig LA Galaxy Ativo 127 / 132 40% 1 24.09.2026 -
Enzo Díaz Sport Recife Ativo 138 / 134 40% 2 23.09.2026 -
Ritsu Doan Gamba Osaka Ativo 161 / 144 40% 1 23.09.2026 -
Isidro Pitta Bragantino Ativo 120 / 126 40% 1 23.09.2026 -
Tadeo Allende Inter Miami CF Ativo 126 / 120 40% 1 22.09.2026 -
Alexander Díaz Deportivo Riestra Ativo 119 / 115 40% 1 22.09.2026 -
Sergio Reguilón Inter Miami CF Ativo 135 / 133 40% 1 20.09.2026 -
Sebastián Córdova Pumas UNAM Ativo 135 / 132 40% 1 20.09.2026 -
Axel Openda KV Oostende Ativo 126 / 132 40% 1 19.09.2026 -
Bénie Traoré New York City Ativo 120 / 124 40% 1 14.09.2026 -
Justo Giani Universidad Catolica Ativo 125 / 118 40% 1 14.09.2026 -
Saúl Flamengo Ativo 127 / 137 40% 1 13.09.2026 -
Oumar Camara Vitoria Guimaraes Ativo 125 / 127 40% 1 10.09.2026 -
Luca Orellano Monterrey Ativo 128 / 132 40% 1 10.09.2026 -
Denis Bouanga Los Angeles Football Club Ativo 137 / 136 40% 1 10.09.2026 -
Ismaël Bennacer Palmeiras Ativo 152 / 142 40% 2 05.09.2026 -
Ricardo Horta Braga Ativo 156 / 150 40% 4 05.09.2026 -
Nicolás de la Cruz Flamengo Ativo 135 / 135 40% 1 04.09.2026 -
Nuno Santos Sporting CP Ativo 142 / 138 40% 3 02.09.2026 -
Agustín Canobbio Fluminense Ativo 141 / 128 40% 1 02.09.2026 -
Allan Saint-Maximin Charlotte Football Club Ativo 146 / 143 40% 3 31.08.2026 -
Pavel Bucha FC Cincinnati Ativo 138 / 133 40% 1 31.08.2026 -
Gérson Cruzeiro Ativo 141 / 143 40% 1 30.08.2026 -
Kévin Denkey FC Cincinnati Ativo 124 / 130 40% 2 27.08.2026 -
Andreas Pereira Palmeiras Ativo 131 / 137 40% 1 27.08.2026 -
Alan Velasco Boca Juniors Ativo 134 / 130 40% 1 27.08.2026 -
Vitinho Botafogo Ativo 126 / 131 40% 1 25.08.2026 -
Jhon Arias Palmeiras Ativo 140 / 139 40% 1 22.08.2026 -
Luis Romo Guadalajara Ativo 140 / 141 40% 1 21.08.2026 -
Léo Ortiz Flamengo Ativo 131 / 144 40% 1 18.08.2026 -
Adrian Leon Barišić Braga Ativo 121 / 131 40% 1 18.08.2026 -
Tomás Chancalay Minnesota United FC Ativo 121 / 125 40% 1 18.08.2026 -
Gabriel Silva Braga Ativo 122 / 130 40% 1 16.08.2026 -
Roberto Alvarado Guadalajara Ativo 136 / 135 40% 2 13.08.2026 -
Bruno Barticciotto Talleres Ativo 116 / 126 40% 1 12.08.2026 -
Martim Fernandes Porto Ativo 127 / 141 40% 2 11.08.2026 -
Andrés Gómez Vasco da Gama Ativo 127 / 130 40% 1 11.08.2026 -
Alexander Bah Benfica Ativo 135 / 134 40% 1 11.08.2026 -
Rodrigo Garro Corinthians Ativo 127 / 135 40% 2 08.08.2026 -
Alexis Cuello San Lorenzo Ativo 123 / 120 40% 1 08.08.2026 -
Deniz Gül Porto Ativo 133 / 133 40% 1 08.08.2026 -
William Cruzeiro Ativo 126 / 137 40% 1 08.08.2026 -
Sergi Altimira Sporting CP Ativo 136 / 138 40% 1 08.08.2026 -
Augusto Batalla Rayo Vallecano Ativo 136 / 137 40% 2 03.08.2026 -
Ignacio de Arruabarrena Arouca Ativo 133 / 128 40% 1 02.08.2026 -
Hugo Souza Corinthians Ativo 131 / 128 40% 1 02.08.2026 -